Time;durP1;ratioP1;P1;durP2;ratioP2;P2;SDS_P1;SDS_P2;PMS_P1;PMS_P2;Temp;Humidity;BMP_temperature;BMP_pressure;BME280_temperature;BME280_humidity;BME280_pressure;Samples;Min_cycle;Max_cycle;Signal;HPM_P1;HPM_P2
2022/09/29 00:00:49;;;;;;;;;;;12.90;89.90;;;;;;5035615;28;19949;-91
2022/09/29 00:03:15;;;;;;;;;;;12.80;90.00;;;;;;5052230;28;19999;-91
2022/09/29 00:05:45;;;;;;;;;;;12.80;89.90;;;;;;5053403;28;20316;-91
2022/09/29 00:08:11;;;;;;;;;;;12.70;89.80;;;;;;5052827;28;20047;-91
2022/09/29 00:10:38;;;;;;;;;;;12.80;90.00;;;;;;5053353;28;20432;-91
2022/09/29 00:13:04;;;;;;;;;;;12.90;90.10;;;;;;5052484;28;19965;-91
2022/09/29 00:15:29;;;;;;;;;;;12.90;90.00;;;;;;5053147;28;20388;-91
2022/09/29 00:17:55;;;;;;;;;;;12.90;90.10;;;;;;5052632;28;20413;-91
2022/09/29 00:20:21;;;;;;;;;;;12.90;90.10;;;;;;5053209;28;20412;-91
2022/09/29 00:22:48;;;;;;;;;;;13.00;90.30;;;;;;5052411;28;20094;-91
2022/09/29 00:25:14;;;;;;;;;;;13.10;90.50;;;;;;5053120;28;19965;-91
2022/09/29 00:30:43;;;;;;;;;;;13.20;90.80;;;;;;5053124;28;19947;-90
2022/09/29 00:33:08;;;;;;;;;;;13.30;90.80;;;;;;5052194;28;19951;-91
2022/09/29 00:35:34;;;;;;;;;;;13.20;90.80;;;;;;5035135;28;20043;-91
2022/09/29 00:37:59;;;;;;;;;;;13.20;90.80;;;;;;5052691;28;19955;-91
2022/09/29 00:40:25;;;;;;;;;;;13.20;90.70;;;;;;5035143;28;20490;-91
2022/09/29 00:42:50;;;;;;;;;;;13.10;90.70;;;;;;5052005;28;20057;-91
2022/09/29 00:45:18;;;;;;;;;;;13.20;90.90;;;;;;5052989;28;20009;-91
2022/09/29 00:47:46;;;;;;;;;;;13.30;90.90;;;;;;5051220;28;19989;-91
2022/09/29 00:50:14;;;;;;;;;;;13.30;90.90;;;;;;5052790;28;20007;-91
2022/09/29 00:52:43;;;;;;;;;;;13.40;90.70;;;;;;5050998;28;19968;-91
2022/09/29 00:55:12;;;;;;;;;;;13.40;90.60;;;;;;5052853;28;19992;-91
2022/09/29 00:57:41;;;;;;;;;;;13.40;90.50;;;;;;5051973;28;19998;-91
2022/09/29 01:00:09;;;;;;;;;;;13.30;90.40;;;;;;5048036;28;19952;-91
2022/09/29 01:02:37;;;;;;;;;;;13.40;90.30;;;;;;5054997;28;19969;-91
2022/09/29 01:05:04;;;;;;;;;;;13.30;90.40;;;;;;5036772;28;19987;-91
2022/09/29 01:07:32;;;;;;;;;;;13.30;90.50;;;;;;5045335;28;20328;-91
2022/09/29 01:09:58;;;;;;;;;;;13.30;90.70;;;;;;5056126;28;19955;-91
2022/09/29 01:12:24;;;;;;;;;;;13.20;90.80;;;;;;5056381;28;19952;-91
2022/09/29 01:14:51;;;;;;;;;;;13.20;90.70;;;;;;5038713;28;19962;-91
2022/09/29 01:17:16;;;;;;;;;;;13.10;90.80;;;;;;5056101;28;20289;-91
2022/09/29 01:20:01;;;;;;;;;;;13.00;90.90;;;;;;5056548;28;19947;-91
2022/09/29 01:22:26;;;;;;;;;;;12.90;91.00;;;;;;5056125;28;19960;-91
2022/09/29 01:25:01;;;;;;;;;;;12.90;91.20;;;;;;5056404;28;19947;-91
2022/09/29 01:27:26;;;;;;;;;;;13.00;91.30;;;;;;5054787;28;19948;-91
2022/09/29 01:30:01;;;;;;;;;;;13.00;91.30;;;;;;5056057;28;19978;-91
2022/09/29 01:32:31;;;;;;;;;;;13.10;91.40;;;;;;5055709;28;19940;-91
2022/09/29 01:35:08;;;;;;;;;;;13.10;91.30;;;;;;5056271;28;19939;-91
2022/09/29 01:40:59;;;;;;;;;;;13.10;90.90;;;;;;5055813;28;20001;-91
2022/09/29 01:43:25;;;;;;;;;;;13.10;90.90;;;;;;5047644;28;19970;-91
2022/09/29 01:45:56;;;;;;;;;;;13.10;90.70;;;;;;5056282;28;19942;-92
2022/09/29 01:48:25;;;;;;;;;;;13.10;90.70;;;;;;5055309;28;19953;-91
2022/09/29 01:50:53;;;;;;;;;;;13.20;90.70;;;;;;5048386;28;20424;-91
2022/09/29 01:53:28;;;;;;;;;;;13.20;90.70;;;;;;5055945;28;19950;-91
2022/09/29 01:55:57;;;;;;;;;;;13.20;90.60;;;;;;5055823;28;19942;-91
2022/09/29 01:58:26;;;;;;;;;;;13.10;90.60;;;;;;5055078;28;19953;-91
2022/09/29 02:00:55;;;;;;;;;;;13.00;90.10;;;;;;5055550;28;19988;-91
2022/09/29 02:03:29;;;;;;;;;;;12.90;90.30;;;;;;5054769;28;20089;-91
2022/09/29 02:06:01;;;;;;;;;;;12.80;90.30;;;;;;5055672;28;20010;-91
2022/09/29 02:08:53;;;;;;;;;;;12.80;90.40;;;;;;5055278;28;20359;-91
2022/09/29 02:11:19;;;;;;;;;;;12.80;90.50;;;;;;5052373;28;19968;-91
2022/09/29 02:13:56;;;;;;;;;;;12.80;91.30;;;;;;5054773;28;19997;-91
2022/09/29 02:16:23;;;;;;;;;;;12.80;91.30;;;;;;5055462;28;20419;-91
2022/09/29 02:18:53;;;;;;;;;;;12.80;91.40;;;;;;5054365;28;20109;-91
2022/09/29 02:21:18;;;;;;;;;;;12.80;91.40;;;;;;5055238;28;20312;-91
2022/09/29 02:23:44;;;;;;;;;;;12.90;91.30;;;;;;5054483;28;19951;-91
2022/09/29 02:26:10;;;;;;;;;;;12.90;91.30;;;;;;5055289;28;20036;-91
2022/09/29 02:28:36;;;;;;;;;;;12.90;91.20;;;;;;5055060;28;20014;-91
2022/09/29 02:31:02;;;;;;;;;;;12.80;91.10;;;;;;5055027;28;19989;-91
2022/09/29 02:33:27;;;;;;;;;;;12.80;91.10;;;;;;5054192;28;19999;-91
2022/09/29 02:36:05;;;;;;;;;;;12.80;91.00;;;;;;5055105;28;19941;-91
2022/09/29 02:38:37;;;;;;;;;;;12.80;91.00;;;;;;5054357;28;19947;-91
2022/09/29 02:41:12;;;;;;;;;;;12.70;90.50;;;;;;5054814;28;19945;-91
2022/09/29 02:43:50;;;;;;;;;;;12.60;90.30;;;;;;5052574;28;19954;-91
2022/09/29 02:46:18;;;;;;;;;;;12.50;91.40;;;;;;5035832;28;20027;-91
2022/09/29 02:49:02;;;;;;;;;;;12.60;91.60;;;;;;5053661;28;19955;-91
2022/09/29 02:51:43;;;;;;;;;;;12.50;91.60;;;;;;5036749;28;19983;-91
2022/09/29 02:54:30;;;;;;;;;;;12.70;91.80;;;;;;5053033;28;19945;-91
2022/09/29 02:56:56;;;;;;;;;;;12.60;91.90;;;;;;5052929;28;19943;-91
2022/09/29 02:59:36;;;;;;;;;;;12.70;92.40;;;;;;5053412;28;19956;-91
2022/09/29 03:02:01;;;;;;;;;;;12.70;92.50;;;;;;5053888;28;20415;-91
2022/09/29 03:04:27;;;;;;;;;;;12.70;92.50;;;;;;5052554;28;19970;-91
2022/09/29 03:06:53;;;;;;;;;;;12.80;92.40;;;;;;5054369;28;20151;-91
2022/09/29 03:09:19;;;;;;;;;;;12.80;92.00;;;;;;5054188;28;19944;-91
2022/09/29 03:11:44;;;;;;;;;;;12.90;91.90;;;;;;5054165;28;19948;-91
2022/09/29 03:14:10;;;;;;;;;;;12.90;91.70;;;;;;5053986;28;20331;-91
2022/09/29 03:16:36;;;;;;;;;;;12.90;91.40;;;;;;5054193;28;20316;-91
2022/09/29 03:19:04;;;;;;;;;;;12.90;91.30;;;;;;5052152;28;19961;-91
2022/09/29 03:21:29;;;;;;;;;;;12.90;91.00;;;;;;5053278;28;19965;-91
2022/09/29 03:23:55;;;;;;;;;;;12.90;91.00;;;;;;5054127;28;20508;-91
2022/09/29 03:26:22;;;;;;;;;;;13.00;90.90;;;;;;5054322;28;19996;-91
2022/09/29 03:28:51;;;;;;;;;;;12.90;90.70;;;;;;5053840;28;20418;-91
2022/09/29 03:31:16;;;;;;;;;;;12.90;90.80;;;;;;5053391;28;19980;-91
2022/09/29 03:33:42;;;;;;;;;;;12.90;90.80;;;;;;5053127;28;20444;-91
2022/09/29 03:36:08;;;;;;;;;;;12.90;90.70;;;;;;5054000;28;20296;-91
2022/09/29 03:38:33;;;;;;;;;;;12.90;90.60;;;;;;5053925;28;20387;-91
2022/09/29 03:40:59;;;;;;;;;;;12.90;90.60;;;;;;5052975;28;20457;-91
2022/09/29 03:43:25;;;;;;;;;;;12.90;90.50;;;;;;5053695;28;20009;-91
2022/09/29 03:45:52;;;;;;;;;;;12.90;90.50;;;;;;5035914;28;19956;-91
2022/09/29 03:48:17;;;;;;;;;;;13.00;90.50;;;;;;5051295;28;19953;-91
2022/09/29 03:50:44;;;;;;;;;;;13.00;90.60;;;;;;5051552;28;19949;-91
2022/09/29 03:53:09;;;;;;;;;;;13.00;90.70;;;;;;5053626;28;19947;-91
2022/09/29 03:55:35;;;;;;;;;;;13.10;90.60;;;;;;5053663;28;19940;-91
2022/09/29 03:58:00;;;;;;;;;;;13.10;90.60;;;;;;5052975;28;20506;-91
2022/09/29 04:00:26;;;;;;;;;;;13.20;90.50;;;;;;5053311;28;19969;-91
2022/09/29 04:02:54;;;;;;;;;;;13.20;90.40;;;;;;5052405;28;20054;-91
2022/09/29 04:05:20;;;;;;;;;;;13.30;90.30;;;;;;5053482;28;19953;-91
2022/09/29 04:07:46;;;;;;;;;;;13.30;90.20;;;;;;5052515;28;20042;-91
2022/09/29 04:10:12;;;;;;;;;;;13.40;90.00;;;;;;5053407;28;19952;-91
2022/09/29 04:12:38;;;;;;;;;;;13.40;89.70;;;;;;5053388;28;19946;-91
2022/09/29 04:15:03;;;;;;;;;;;13.40;89.50;;;;;;5053266;28;19941;-91
2022/09/29 04:17:29;;;;;;;;;;;13.40;89.30;;;;;;5034764;28;19946;-91
2022/09/29 04:19:55;;;;;;;;;;;13.40;89.30;;;;;;5053480;28;19986;-91
2022/09/29 04:22:20;;;;;;;;;;;13.30;89.40;;;;;;5053069;28;20420;-91
2022/09/29 04:24:47;;;;;;;;;;;13.40;89.60;;;;;;5053153;28;19939;-91
2022/09/29 04:27:13;;;;;;;;;;;13.30;89.50;;;;;;5052123;28;19943;-91
2022/09/29 04:29:38;;;;;;;;;;;13.30;89.50;;;;;;5052874;28;19983;-90
2022/09/29 04:32:05;;;;;;;;;;;13.20;89.60;;;;;;5052294;28;19939;-91
2022/09/29 04:34:31;;;;;;;;;;;13.30;89.60;;;;;;5035253;28;19971;-91
2022/09/29 04:36:56;;;;;;;;;;;13.30;89.60;;;;;;5051625;28;19977;-91
2022/09/29 04:39:22;;;;;;;;;;;13.20;89.50;;;;;;5052601;28;19946;-91
2022/09/29 04:41:48;;;;;;;;;;;13.00;89.70;;;;;;5052726;28;19961;-91
2022/09/29 04:44:13;;;;;;;;;;;12.90;89.90;;;;;;5052997;28;19939;-91
2022/09/29 04:46:39;;;;;;;;;;;12.90;90.10;;;;;;5034232;28;20331;-91
2022/09/29 04:49:04;;;;;;;;;;;12.90;90.20;;;;;;5035179;28;20074;-91
2022/09/29 04:51:30;;;;;;;;;;;12.90;90.20;;;;;;5052671;28;20353;-91
2022/09/29 04:53:57;;;;;;;;;;;12.90;90.20;;;;;;5052976;28;20311;-91
2022/09/29 04:56:22;;;;;;;;;;;12.90;90.30;;;;;;5051544;28;19945;-91
2022/09/29 04:58:48;;;;;;;;;;;12.90;90.50;;;;;;5052219;28;19952;-92
2022/09/29 05:01:13;;;;;;;;;;;12.90;90.40;;;;;;5034976;28;19939;-91
2022/09/29 05:03:39;;;;;;;;;;;12.90;90.30;;;;;;5052581;28;20038;-91
2022/09/29 05:06:05;;;;;;;;;;;12.90;90.40;;;;;;5051517;28;19988;-91
2022/09/29 05:08:30;;;;;;;;;;;12.90;90.60;;;;;;5052359;28;19943;-91
2022/09/29 05:10:56;;;;;;;;;;;12.90;90.60;;;;;;5052659;28;20038;-91
2022/09/29 05:13:23;;;;;;;;;;;12.90;90.60;;;;;;5051552;28;20565;-92
2022/09/29 05:15:49;;;;;;;;;;;13.00;90.70;;;;;;5051779;28;19944;-91
2022/09/29 05:18:14;;;;;;;;;;;13.00;90.60;;;;;;5052287;28;19960;-91
2022/09/29 05:20:40;;;;;;;;;;;13.00;90.00;;;;;;5051956;28;19951;-91
2022/09/29 05:23:08;;;;;;;;;;;12.90;90.00;;;;;;5051582;28;20437;-92
2022/09/29 05:25:35;;;;;;;;;;;12.90;89.90;;;;;;5051039;28;19956;-91
2022/09/29 05:28:00;;;;;;;;;;;12.80;90.10;;;;;;5049766;28;20518;-91
2022/09/29 05:30:26;;;;;;;;;;;12.60;90.30;;;;;;5049594;28;19994;-91
2022/09/29 05:32:52;;;;;;;;;;;12.60;90.60;;;;;;5047558;28;20425;-91
2022/09/29 05:35:17;;;;;;;;;;;12.70;90.70;;;;;;5050341;28;19965;-91
2022/09/29 05:37:44;;;;;;;;;;;12.70;91.10;;;;;;5051195;28;19997;-92
2022/09/29 05:40:09;;;;;;;;;;;12.80;91.40;;;;;;5046111;28;19950;-91
2022/09/29 05:42:35;;;;;;;;;;;12.90;91.70;;;;;;5049315;28;19973;-92
2022/09/29 05:45:01;;;;;;;;;;;12.90;91.90;;;;;;5047928;28;19947;-92
2022/09/29 05:47:26;;;;;;;;;;;12.90;91.90;;;;;;5032189;28;20353;-91
2022/09/29 05:49:52;;;;;;;;;;;12.90;91.80;;;;;;5052246;28;20307;-92
2022/09/29 05:52:17;;;;;;;;;;;13.10;91.90;;;;;;5040309;28;19960;-92
2022/09/29 05:54:43;;;;;;;;;;;13.20;91.90;;;;;;5052920;28;19947;-92
2022/09/29 05:57:08;;;;;;;;;;;13.30;91.60;;;;;;5053661;28;19989;-92
2022/09/29 05:59:34;;;;;;;;;;;13.40;91.50;;;;;;5052398;28;20059;-92
2022/09/29 06:01:59;;;;;;;;;;;13.50;91.30;;;;;;5053547;28;19993;-92
2022/09/29 06:04:25;;;;;;;;;;;13.60;90.50;;;;;;5054264;28;19957;-92
2022/09/29 06:06:51;;;;;;;;;;;13.70;89.90;;;;;;5052532;28;19966;-92
2022/09/29 06:09:17;;;;;;;;;;;13.80;89.70;;;;;;5054182;28;20313;-92
2022/09/29 06:11:42;;;;;;;;;;;13.90;89.60;;;;;;5054179;28;19951;-92
2022/09/29 06:14:08;;;;;;;;;;;13.90;89.50;;;;;;5046162;28;19946;-92
2022/09/29 06:16:34;;;;;;;;;;;14.10;89.30;;;;;;5045685;28;19944;-92
2022/09/29 06:19:00;;;;;;;;;;;14.20;88.20;;;;;;5053714;28;19958;-92
2022/09/29 06:21:26;;;;;;;;;;;14.30;88.30;;;;;;5053796;28;20025;-92
2022/09/29 06:23:55;;;;;;;;;;;14.40;87.00;;;;;;5054037;28;20428;-91
2022/09/29 06:26:21;;;;;;;;;;;14.40;86.90;;;;;;5041841;28;19965;-92
2022/09/29 06:28:47;;;;;;;;;;;14.50;86.50;;;;;;5053167;28;19981;-92
2022/09/29 06:31:14;;;;;;;;;;;14.60;86.70;;;;;;5048525;28;19987;-92
2022/09/29 06:33:40;;;;;;;;;;;14.70;86.70;;;;;;5054098;28;19945;-92
2022/09/29 06:38:56;;;;;;;;;;;14.80;86.80;;;;;;5050530;28;19992;-92
2022/09/29 06:41:22;;;;;;;;;;;14.80;86.90;;;;;;5049618;28;19950;-92
2022/09/29 06:43:47;;;;;;;;;;;14.80;86.90;;;;;;5046967;28;19942;-92
2022/09/29 06:46:13;;;;;;;;;;;14.90;87.10;;;;;;5053009;28;19947;-91
2022/09/29 06:48:38;;;;;;;;;;;15.10;87.00;;;;;;5044353;28;19946;-92
2022/09/29 06:51:08;;;;;;;;;;;15.30;86.70;;;;;;5053446;28;20414;-91
2022/09/29 06:53:34;;;;;;;;;;;15.30;86.20;;;;;;5042370;28;19949;-92
2022/09/29 06:56:00;;;;;;;;;;;15.40;85.90;;;;;;5053099;28;19952;-92
2022/09/29 06:58:26;;;;;;;;;;;15.50;85.60;;;;;;5052894;28;19950;-92
2022/09/29 07:00:52;;;;;;;;;;;15.50;85.60;;;;;;5034631;28;20319;-91
2022/09/29 07:03:18;;;;;;;;;;;15.60;85.80;;;;;;5054211;28;19967;-92
2022/09/29 07:05:43;;;;;;;;;;;15.60;86.10;;;;;;5051863;28;20078;-92
2022/09/29 07:08:09;;;;;;;;;;;15.60;86.50;;;;;;5051219;28;19957;-91
2022/09/29 07:10:36;;;;;;;;;;;15.50;86.90;;;;;;5052765;28;19949;-92
2022/09/29 07:13:02;;;;;;;;;;;15.40;87.00;;;;;;5052517;28;19943;-92
2022/09/29 07:15:30;;;;;;;;;;;15.20;87.80;;;;;;5077333;23;19997;-91
2022/09/29 07:17:59;;;;;;;;;;;15.20;88.30;;;;;;5076384;28;19948;-91
2022/09/29 07:20:26;;;;;;;;;;;15.10;88.50;;;;;;5091727;28;19976;-92
2022/09/29 07:22:52;;;;;;;;;;;15.20;88.60;;;;;;5092758;28;19973;-92
2022/09/29 07:25:17;;;;;;;;;;;15.30;88.40;;;;;;5083700;28;19941;-92
2022/09/29 07:27:43;;;;;;;;;;;15.30;88.20;;;;;;5069015;28;19940;-91
2022/09/29 07:30:09;;;;;;;;;;;15.30;88.10;;;;;;5089564;28;19946;-92
2022/09/29 07:32:34;;;;;;;;;;;15.30;88.10;;;;;;5081243;28;20324;-91
2022/09/29 07:35:00;;;;;;;;;;;15.50;88.00;;;;;;5079328;28;19951;-92
2022/09/29 07:37:26;;;;;;;;;;;15.60;87.80;;;;;;5081031;28;19946;-92
2022/09/29 07:39:53;;;;;;;;;;;15.70;87.70;;;;;;5084382;28;19991;-92
2022/09/29 07:42:20;;;;;;;;;;;15.90;87.40;;;;;;5087939;28;19991;-92
2022/09/29 07:44:46;;;;;;;;;;;16.00;87.40;;;;;;5078391;28;19960;-92
2022/09/29 07:47:12;;;;;;;;;;;16.00;86.70;;;;;;5087125;28;20201;-91
2022/09/29 07:49:38;;;;;;;;;;;15.80;86.50;;;;;;5084305;28;19956;-92
2022/09/29 07:52:03;;;;;;;;;;;15.70;87.30;;;;;;5083215;28;19962;-92
2022/09/29 07:54:30;;;;;;;;;;;15.80;87.30;;;;;;5071861;28;19943;-92
2022/09/29 07:56:55;;;;;;;;;;;16.00;87.20;;;;;;5072019;28;19945;-91
2022/09/29 07:59:21;;;;;;;;;;;16.10;87.10;;;;;;5073258;28;20435;-92
2022/09/29 08:01:46;;;;;;;;;;;16.20;87.00;;;;;;5073157;28;19966;-92
2022/09/29 08:04:12;;;;;;;;;;;16.30;86.60;;;;;;5072014;28;19948;-92
2022/09/29 08:06:39;;;;;;;;;;;16.40;85.90;;;;;;5070749;28;19988;-92
2022/09/29 08:09:05;;;;;;;;;;;16.40;85.70;;;;;;5058651;28;20014;-92
2022/09/29 08:11:31;;;;;;;;;;;16.50;85.70;;;;;;5071977;28;19946;-92
2022/09/29 08:13:56;;;;;;;;;;;16.50;85.50;;;;;;5070053;28;19956;-92
2022/09/29 08:16:22;;;;;;;;;;;16.50;85.80;;;;;;5070136;28;20020;-91
2022/09/29 08:18:49;;;;;;;;;;;16.50;85.60;;;;;;5077337;28;20285;-91
2022/09/29 08:21:14;;;;;;;;;;;16.30;86.00;;;;;;5071489;28;20432;-91
2022/09/29 08:23:41;;;;;;;;;;;16.50;85.60;;;;;;5067277;28;19959;-91
2022/09/29 08:26:08;;;;;;;;;;;16.60;84.90;;;;;;5070358;28;19947;-92
2022/09/29 08:28:34;;;;;;;;;;;16.80;84.90;;;;;;5070420;28;19947;-91
2022/09/29 08:31:00;;;;;;;;;;;17.00;84.20;;;;;;5069654;28;19985;-91
2022/09/29 08:33:26;;;;;;;;;;;17.20;84.10;;;;;;5073906;28;19949;-91
2022/09/29 08:35:56;;;;;;;;;;;17.30;83.80;;;;;;5070326;28;20439;-92
2022/09/29 08:38:21;;;;;;;;;;;17.50;82.80;;;;;;5060551;28;19953;-92
2022/09/29 08:40:47;;;;;;;;;;;17.50;82.30;;;;;;5070034;28;20407;-92
2022/09/29 08:43:33;;;;;;;;;;;17.60;81.90;;;;;;5065311;28;19960;-91
2022/09/29 08:46:06;;;;;;;;;;;17.80;81.80;;;;;;5071292;28;20038;-91
2022/09/29 08:48:35;;;;;;;;;;;17.80;81.70;;;;;;5069511;28;19953;-91
2022/09/29 08:51:03;;;;;;;;;;;17.90;80.50;;;;;;5066168;28;19971;-91
2022/09/29 08:53:31;;;;;;;;;;;17.80;80.60;;;;;;5071257;28;19955;-92
2022/09/29 08:55:59;;;;;;;;;;;17.80;80.70;;;;;;5070729;28;19970;-91
2022/09/29 08:58:24;;;;;;;;;;;17.70;80.50;;;;;;5069842;28;20452;-91
2022/09/29 09:00:53;;;;;;;;;;;17.60;80.60;;;;;;5078821;28;20033;-91
2022/09/29 09:03:21;;;;;;;;;;;17.60;81.10;;;;;;5057555;28;19969;-91
2022/09/29 09:05:47;;;;;;;;;;;17.60;80.70;;;;;;5062357;28;19946;-91
2022/09/29 09:08:15;;;;;;;;;;;17.80;80.60;;;;;;5071648;28;19968;-91
2022/09/29 09:10:45;;;;;;;;;;;18.00;79.50;;;;;;5070514;28;20160;-91
2022/09/29 09:13:14;;;;;;;;;;;18.20;78.70;;;;;;5072916;28;19948;-91
2022/09/29 09:15:40;;;;;;;;;;;18.30;77.00;;;;;;5071477;28;19970;-91
2022/09/29 09:18:08;;;;;;;;;;;18.30;77.10;;;;;;5089146;28;20445;-91
2022/09/29 09:20:44;;;;;;;;;;;18.30;76.90;;;;;;5081993;28;20036;-91
2022/09/29 09:23:18;;;;;;;;;;;18.30;77.00;;;;;;5077111;28;19966;-91
2022/09/29 09:25:58;;;;;;;;;;;18.20;76.50;;;;;;5072629;28;19951;-91
2022/09/29 09:28:28;;;;;;;;;;;18.00;78.80;;;;;;5077638;28;20355;-91
2022/09/29 09:30:54;;;;;;;;;;;17.80;79.40;;;;;;5068354;28;19997;-90
2022/09/29 09:33:30;;;;;;;;;;;17.50;80.70;;;;;;5072412;28;19984;-91
2022/09/29 09:36:21;;;;;;;;;;;17.30;82.10;;;;;;5069504;28;19944;-91
2022/09/29 09:39:06;;;;;;;;;;;17.30;82.10;;;;;;5070072;28;20051;-91
2022/09/29 09:41:34;;;;;;;;;;;17.40;81.50;;;;;;5067290;28;19946;-91
2022/09/29 09:44:12;;;;;;;;;;;17.70;81.30;;;;;;5084815;28;20440;-91
2022/09/29 09:46:40;;;;;;;;;;;17.80;80.60;;;;;;5074178;28;19951;-91
2022/09/29 09:49:12;;;;;;;;;;;18.10;79.60;;;;;;5079938;28;20389;-91
2022/09/29 09:51:45;;;;;;;;;;;18.40;78.80;;;;;;5070204;28;19963;-91
2022/09/29 09:54:13;;;;;;;;;;;18.60;77.70;;;;;;5077425;28;19984;-91
2022/09/29 09:56:42;;;;;;;;;;;18.80;76.70;;;;;;5078508;28;19944;-91
2022/09/29 09:59:08;;;;;;;;;;;18.90;76.60;;;;;;5074555;28;20279;-91
2022/09/29 10:01:33;;;;;;;;;;;19.00;75.60;;;;;;5071788;28;20048;-91
2022/09/29 10:03:59;;;;;;;;;;;19.10;75.30;;;;;;5069399;28;19940;-91
2022/09/29 10:06:25;;;;;;;;;;;19.30;74.80;;;;;;5052489;28;20387;-91
2022/09/29 10:08:51;;;;;;;;;;;19.40;75.40;;;;;;5070020;28;20037;-91
2022/09/29 10:11:26;;;;;;;;;;;19.30;74.90;;;;;;5073048;28;19947;-91
2022/09/29 10:14:27;;;;;;;;;;;19.30;74.00;;;;;;5073597;28;19991;-91
2022/09/29 10:16:57;;;;;;;;;;;19.50;73.40;;;;;;5019769;28;19960;-91
2022/09/29 10:19:43;;;;;;;;;;;19.90;74.20;;;;;;5050999;28;19947;-91
2022/09/29 10:22:13;;;;;;;;;;;20.20;72.20;;;;;;5068749;28;20433;-91
2022/09/29 10:24:38;;;;;;;;;;;20.40;71.20;;;;;;5075295;28;20493;-91
2022/09/29 10:27:04;;;;;;;;;;;20.50;73.00;;;;;;5072946;28;20228;-91
2022/09/29 10:29:32;;;;;;;;;;;20.10;74.10;;;;;;5040846;28;20279;-91
2022/09/29 10:32:01;;;;;;;;;;;19.70;75.00;;;;;;5049909;28;19998;-92
2022/09/29 10:34:27;;;;;;;;;;;19.50;76.10;;;;;;5069430;28;19947;-91
2022/09/29 10:36:59;;;;;;;;;;;19.20;76.20;;;;;;5075061;28;19943;-91
2022/09/29 10:39:32;;;;;;;;;;;19.10;76.80;;;;;;5051943;28;19944;-91
2022/09/29 10:41:57;;;;;;;;;;;19.20;76.80;;;;;;5045416;28;19961;-90
2022/09/29 10:44:23;;;;;;;;;;;19.30;76.50;;;;;;5056029;28;20052;-91
2022/09/29 10:46:53;;;;;;;;;;;19.50;75.70;;;;;;5054423;28;19940;-91
2022/09/29 10:49:20;;;;;;;;;;;19.70;75.00;;;;;;5069087;28;20114;-91
2022/09/29 10:51:48;;;;;;;;;;;20.00;74.10;;;;;;5070221;28;19961;-91
2022/09/29 10:54:15;;;;;;;;;;;20.50;73.30;;;;;;5053938;28;19951;-91
2022/09/29 10:56:46;;;;;;;;;;;20.90;71.50;;;;;;5054279;28;19959;-91
2022/09/29 10:59:12;;;;;;;;;;;21.40;70.40;;;;;;5054400;28;20390;-91
2022/09/29 11:01:44;;;;;;;;;;;21.90;67.50;;;;;;5055425;28;19947;-91
2022/09/29 11:04:16;;;;;;;;;;;22.20;66.60;;;;;;5054231;28;19983;-91
2022/09/29 11:06:41;;;;;;;;;;;22.20;66.00;;;;;;5052921;28;19955;-91
2022/09/29 11:09:14;;;;;;;;;;;22.20;65.60;;;;;;5054453;28;19940;-91
2022/09/29 11:11:52;;;;;;;;;;;22.00;65.30;;;;;;5055711;28;19951;-91
2022/09/29 11:14:23;;;;;;;;;;;21.70;66.70;;;;;;5074362;28;20412;-91
2022/09/29 11:16:54;;;;;;;;;;;21.70;67.00;;;;;;5075417;28;19992;-91
2022/09/29 11:19:20;;;;;;;;;;;21.80;66.80;;;;;;5072715;28;19949;-91
2022/09/29 11:22:01;;;;;;;;;;;21.90;65.60;;;;;;5073813;28;19969;-91
2022/09/29 11:24:35;;;;;;;;;;;22.00;65.40;;;;;;5073004;28;20031;-91
2022/09/29 11:27:09;;;;;;;;;;;22.00;64.70;;;;;;5066708;28;19940;-91
2022/09/29 11:29:50;;;;;;;;;;;22.10;63.50;;;;;;5071965;28;20007;-91
2022/09/29 11:32:30;;;;;;;;;;;22.00;64.40;;;;;;5070823;28;20028;-91
2022/09/29 11:34:56;;;;;;;;;;;22.20;63.50;;;;;;5071133;28;19996;-91
2022/09/29 11:37:27;;;;;;;;;;;22.10;63.10;;;;;;5080072;28;20350;-90
2022/09/29 11:40:10;;;;;;;;;;;22.10;62.40;;;;;;5075782;28;19947;-90
2022/09/29 11:42:36;;;;;;;;;;;22.20;62.20;;;;;;5072785;28;19988;-91
2022/09/29 11:45:04;;;;;;;;;;;22.50;60.80;;;;;;5069345;28;19987;-91
2022/09/29 11:47:32;;;;;;;;;;;22.70;59.30;;;;;;5073728;28;20458;-91
2022/09/29 11:50:01;;;;;;;;;;;22.90;58.50;;;;;;5069216;28;20017;-91
2022/09/29 11:52:47;;;;;;;;;;;22.80;56.30;;;;;;5071071;28;21163;-91
2022/09/29 11:55:32;;;;;;;;;;;22.80;56.70;;;;;;5065562;28;19949;-91
2022/09/29 11:57:58;;;;;;;;;;;22.90;57.30;;;;;;5070956;28;19943;-91
2022/09/29 12:00:33;;;;;;;;;;;23.10;55.90;;;;;;5067290;28;19946;-91
2022/09/29 12:03:17;;;;;;;;;;;23.20;55.10;;;;;;5065800;28;20060;-91
2022/09/29 12:05:48;;;;;;;;;;;23.40;55.00;;;;;;5074532;28;19951;-92
2022/09/29 12:08:33;;;;;;;;;;;23.70;55.10;;;;;;5075656;28;20035;-91
2022/09/29 12:11:04;;;;;;;;;;;23.70;54.80;;;;;;5073590;28;20044;-91
2022/09/29 12:13:50;;;;;;;;;;;24.20;53.60;;;;;;5065216;28;19954;-92
2022/09/29 12:16:18;;;;;;;;;;;25.00;52.40;;;;;;5075912;28;19976;-91
2022/09/29 12:18:50;;;;;;;;;;;25.90;49.30;;;;;;5069440;28;19944;-92
2022/09/29 12:21:16;;;;;;;;;;;26.30;47.60;;;;;;5070950;28;19953;-91
2022/09/29 12:23:43;;;;;;;;;;;26.50;47.40;;;;;;5071012;28;19964;-91
2022/09/29 12:26:12;;;;;;;;;;;27.10;46.50;;;;;;5056265;28;20003;-92
2022/09/29 12:28:46;;;;;;;;;;;27.70;45.00;;;;;;5076681;28;19991;-91
2022/09/29 12:31:15;;;;;;;;;;;28.40;43.50;;;;;;5054119;28;20420;-92
2022/09/29 12:34:07;;;;;;;;;;;29.20;41.70;;;;;;5067717;28;19949;-91
2022/09/29 12:36:45;;;;;;;;;;;29.90;40.10;;;;;;5067617;28;20016;-92
2022/09/29 12:39:24;;;;;;;;;;;30.70;39.40;;;;;;5083941;28;19941;-91
2022/09/29 12:41:52;;;;;;;;;;;31.20;38.70;;;;;;5052422;28;19962;-91
2022/09/29 12:44:23;;;;;;;;;;;32.20;37.00;;;;;;5067475;28;19999;-91
2022/09/29 12:46:57;;;;;;;;;;;32.50;36.20;;;;;;5070623;28;19955;-91
2022/09/29 12:49:27;;;;;;;;;;;32.70;35.10;;;;;;5069506;28;19959;-91
2022/09/29 12:51:55;;;;;;;;;;;31.70;36.70;;;;;;5076062;28;20011;-90
2022/09/29 12:54:21;;;;;;;;;;;31.20;37.90;;;;;;5070996;28;21278;-91
2022/09/29 12:56:53;;;;;;;;;;;31.20;37.00;;;;;;5067078;28;20424;-91
2022/09/29 12:59:37;;;;;;;;;;;31.60;37.40;;;;;;5083803;28;19939;-91
2022/09/29 13:02:12;;;;;;;;;;;31.50;37.70;;;;;;5076240;28;19967;-91
2022/09/29 13:05:07;;;;;;;;;;;31.10;38.80;;;;;;5055433;28;19988;-91
2022/09/29 13:07:52;;;;;;;;;;;31.60;36.70;;;;;;5020493;28;19955;-91
2022/09/29 13:10:17;;;;;;;;;;;32.10;36.40;;;;;;5065504;28;19955;-91
2022/09/29 13:12:45;;;;;;;;;;;32.80;35.00;;;;;;5075366;28;20042;-91
2022/09/29 13:15:31;;;;;;;;;;;33.10;34.80;;;;;;5070320;28;19974;-91
2022/09/29 13:18:22;;;;;;;;;;;32.90;35.30;;;;;;5073272;28;19953;-91
2022/09/29 13:20:56;;;;;;;;;;;33.10;35.30;;;;;;5074412;28;19951;-91
2022/09/29 13:23:37;;;;;;;;;;;33.70;34.60;;;;;;5075085;28;20059;-91
2022/09/29 13:26:18;;;;;;;;;;;34.00;33.40;;;;;;5074515;28;19949;-91
2022/09/29 13:28:46;;;;;;;;;;;34.00;33.90;;;;;;5075608;28;19943;-91
2022/09/29 13:31:14;;;;;;;;;;;33.90;33.10;;;;;;5076859;28;20037;-91
2022/09/29 13:33:40;;;;;;;;;;;33.50;34.20;;;;;;5085132;28;19946;-92
2022/09/29 13:36:07;;;;;;;;;;;32.90;35.70;;;;;;5072371;28;19963;-91
2022/09/29 13:38:36;;;;;;;;;;;32.70;35.90;;;;;;5081795;28;20713;-91
2022/09/29 13:41:14;;;;;;;;;;;32.20;36.40;;;;;;5076592;28;19987;-91
2022/09/29 13:44:03;;;;;;;;;;;31.40;37.90;;;;;;5080505;28;19987;-91
2022/09/29 13:46:31;;;;;;;;;;;30.90;38.30;;;;;;5069944;28;19958;-90
2022/09/29 13:49:10;;;;;;;;;;;29.70;40.50;;;;;;5072913;28;19964;-91
2022/09/29 13:51:42;;;;;;;;;;;28.50;43.20;;;;;;5067620;28;19966;-90
2022/09/29 13:54:20;;;;;;;;;;;27.70;45.30;;;;;;5073088;28;20040;-91
2022/09/29 13:57:05;;;;;;;;;;;27.70;45.80;;;;;;5066564;28;19966;-91
2022/09/29 13:59:32;;;;;;;;;;;27.80;45.60;;;;;;5063066;28;19948;-91
2022/09/29 14:01:58;;;;;;;;;;;28.60;44.80;;;;;;5071212;28;19985;-91
2022/09/29 14:04:33;;;;;;;;;;;29.20;42.80;;;;;;5072094;28;19948;-91
2022/09/29 14:07:03;;;;;;;;;;;28.70;43.10;;;;;;5070589;28;19944;-91
2022/09/29 14:09:34;;;;;;;;;;;27.70;45.90;;;;;;5077351;28;19948;-91
2022/09/29 14:12:01;;;;;;;;;;;26.90;47.20;;;;;;5082010;28;20002;-91
2022/09/29 14:14:41;;;;;;;;;;;26.30;48.90;;;;;;5078549;28;19968;-91
2022/09/29 14:17:09;;;;;;;;;;;25.50;51.50;;;;;;5075279;28;20001;-90
2022/09/29 14:19:43;;;;;;;;;;;24.80;52.10;;;;;;5072767;28;19943;-91
2022/09/29 14:22:28;;;;;;;;;;;24.30;54.10;;;;;;5071179;28;20467;-91
2022/09/29 14:24:54;;;;;;;;;;;24.20;55.90;;;;;;5077083;28;19951;-91
2022/09/29 14:27:32;;;;;;;;;;;23.80;57.70;;;;;;5073518;28;19948;-91
2022/09/29 14:30:14;;;;;;;;;;;23.60;59.40;;;;;;5073163;28;19956;-91
2022/09/29 14:32:58;;;;;;;;;;;23.40;60.70;;;;;;5058306;28;19941;-90
2022/09/29 14:35:32;;;;;;;;;;;23.20;60.50;;;;;;5074162;28;19955;-90
2022/09/29 14:37:58;;;;;;;;;;;23.00;62.40;;;;;;5089626;28;19943;-90